createdAt,value
2023-10-29T00:00:02.153Z,75833.63
2023-10-29T00:02:28.720Z,75817.00
2023-10-29T00:04:55.211Z,75817.00
2023-10-29T00:07:26.726Z,75806.63
2023-10-29T00:09:53.171Z,75812.84
2023-10-29T00:12:27.761Z,75814.94
2023-10-29T00:14:54.259Z,75798.31
2023-10-29T00:17:20.774Z,75798.31
2023-10-29T00:19:47.577Z,75802.47
2023-10-29T00:22:14.058Z,75794.16
2023-10-29T00:24:40.448Z,75785.84
2023-10-29T00:27:06.830Z,75779.63
2023-10-29T00:29:33.544Z,75785.84
2023-10-29T00:31:59.970Z,75777.53
2023-10-29T00:34:30.358Z,75769.22
2023-10-29T00:37:00.168Z,75767.16
2023-10-29T00:39:26.597Z,75767.16
2023-10-29T00:41:53.004Z,75756.78
2023-10-29T00:44:19.435Z,75746.38
2023-10-29T00:46:48.369Z,75736.00
2023-10-29T00:49:15.119Z,75729.78
2023-10-29T00:51:46.904Z,75721.47
2023-10-29T00:54:16.572Z,75719.38
2023-10-29T00:56:43.056Z,75723.53
2023-10-29T00:59:10.812Z,75706.94
2023-10-29T01:01:38.771Z,75700.69
2023-10-29T01:04:09.236Z,75690.31
2023-10-29T01:06:38.558Z,75706.94
2023-10-29T01:09:13.610Z,75690.31
2023-10-29T01:11:40.058Z,75684.09
2023-10-29T01:14:07.797Z,75675.78
2023-10-29T01:16:34.258Z,75686.16
2023-10-29T01:19:02.071Z,75682.00
2023-10-29T01:21:29.247Z,75686.16
2023-10-29T01:23:58.103Z,75692.38
2023-10-29T01:26:24.589Z,75677.84
2023-10-29T01:28:51.266Z,75669.53
2023-10-29T01:31:22.194Z,75669.53
2023-10-29T01:33:48.672Z,75657.09
2023-10-29T01:36:17.264Z,75659.16
2023-10-29T01:38:43.725Z,75661.25
2023-10-29T01:41:10.153Z,75655.00
2023-10-29T01:43:37.889Z,75650.84
2023-10-29T01:46:15.242Z,75652.94
2023-10-29T01:48:45.034Z,75648.78
2023-10-29T01:51:19.146Z,75655.00
2023-10-29T01:53:45.625Z,75644.63
2023-10-29T01:56:23.081Z,75644.63
2023-10-29T01:58:49.481Z,75646.69
2023-10-29T02:01:22.130Z,75638.41
2023-10-29T02:03:51.450Z,75636.31
2023-10-29T02:06:19.546Z,75611.41
2023-10-29T02:08:46.646Z,75605.16
2023-10-29T02:11:20.311Z,75596.84
2023-10-29T02:13:52.201Z,75590.63
2023-10-29T02:16:19.295Z,75586.47
2023-10-29T02:18:45.776Z,75574.00
2023-10-29T02:21:12.206Z,75576.09
2023-10-29T02:23:41.093Z,75586.47
2023-10-29T02:26:10.001Z,75578.16
2023-10-29T02:28:38.922Z,75590.63
2023-10-29T02:31:05.411Z,75590.63
2023-10-29T02:33:34.995Z,75588.56
2023-10-29T02:36:01.420Z,75586.47
2023-10-29T02:38:30.795Z,75590.63
2023-10-29T02:41:00.024Z,75586.47
2023-10-29T02:43:26.438Z,75578.16
2023-10-29T02:45:52.846Z,75584.41
2023-10-29T02:48:19.373Z,75569.88
2023-10-29T02:50:53.004Z,75576.09
2023-10-29T02:53:19.444Z,75567.78
2023-10-29T02:55:55.294Z,75576.09
2023-10-29T02:58:23.224Z,75561.56
2023-10-29T03:00:51.726Z,75555.31
2023-10-29T03:03:20.698Z,75559.47
2023-10-29T03:05:56.787Z,75547.00
2023-10-29T03:08:24.249Z,75549.09
2023-10-29T03:10:54.177Z,75555.31
2023-10-29T03:13:21.563Z,75549.09
2023-10-29T03:15:50.786Z,75553.25
2023-10-29T03:18:17.433Z,75553.25
2023-10-29T03:20:43.972Z,75544.94
2023-10-29T03:23:10.455Z,75536.63
2023-10-29T03:25:38.162Z,75532.47
2023-10-29T03:28:04.804Z,75536.63
2023-10-29T03:30:33.649Z,75538.72
2023-10-29T03:33:00.140Z,75534.56
2023-10-29T03:35:29.231Z,75542.88
2023-10-29T03:37:55.651Z,75549.09
2023-10-29T03:40:22.593Z,75551.16
2023-10-29T03:42:53.112Z,75563.63
2023-10-29T03:45:21.701Z,75557.41
2023-10-29T03:47:52.579Z,75561.56
2023-10-29T03:50:19.098Z,75549.09
2023-10-29T03:52:50.628Z,75553.25
2023-10-29T03:55:20.081Z,75578.16
2023-10-29T03:57:51.881Z,75567.78
2023-10-29T04:00:18.412Z,75574.00
2023-10-29T04:02:47.480Z,75569.88
2023-10-29T04:05:14.110Z,75567.78
2023-10-29T04:07:40.824Z,75563.63
2023-10-29T04:10:08.194Z,75557.41
2023-10-29T04:12:41.268Z,75549.09
2023-10-29T04:15:10.406Z,75549.09
2023-10-29T04:17:38.661Z,75557.41
2023-10-29T04:20:08.746Z,75563.63
2023-10-29T04:22:35.215Z,75569.88
2023-10-29T04:25:04.506Z,75542.88
2023-10-29T04:27:32.304Z,75549.09
2023-10-29T04:30:00.148Z,75584.41
2023-10-29T04:32:27.899Z,75567.78
2023-10-29T04:34:54.325Z,75567.78
2023-10-29T04:37:20.833Z,75563.63
2023-10-29T04:39:47.299Z,75580.25
2023-10-29T04:42:13.718Z,75576.09
2023-10-29T04:44:40.144Z,75569.88
2023-10-29T04:47:06.781Z,75569.88
2023-10-29T04:49:35.148Z,75549.09
2023-10-29T04:52:01.506Z,75549.09
2023-10-29T04:54:28.950Z,75567.78
2023-10-29T04:56:55.338Z,75574.00
2023-10-29T04:59:21.691Z,75580.25
2023-10-29T05:01:50.827Z,75594.78
2023-10-29T05:04:19.789Z,75582.31
2023-10-29T05:06:46.273Z,75588.56
2023-10-29T05:09:12.695Z,75601.00
2023-10-29T05:11:39.340Z,75617.63
2023-10-29T05:14:08.113Z,75623.84
2023-10-29T05:16:51.513Z,75623.84
2023-10-29T05:19:22.676Z,75642.53
2023-10-29T05:21:49.072Z,75659.16
2023-10-29T05:24:15.549Z,75661.25
2023-10-29T05:26:42.458Z,75669.53
2023-10-29T05:29:09.016Z,75665.41
2023-10-29T05:31:35.591Z,75659.16
2023-10-29T05:34:02.092Z,75682.00
2023-10-29T05:36:32.040Z,75696.53
2023-10-29T05:39:00.088Z,75684.09
2023-10-29T05:41:27.891Z,75696.53
2023-10-29T05:43:56.512Z,75696.53
2023-10-29T05:46:23.471Z,75704.84
2023-10-29T05:48:50.190Z,75709.00
2023-10-29T05:51:20.121Z,75721.47
2023-10-29T05:53:46.918Z,75725.63
2023-10-29T05:56:13.512Z,75742.22
2023-10-29T05:58:40.173Z,75731.84
2023-10-29T06:01:08.444Z,75733.94
2023-10-29T06:03:35.161Z,75746.38
2023-10-29T06:06:01.989Z,75738.09
2023-10-29T06:08:28.456Z,75750.53
2023-10-29T06:10:55.149Z,75752.63
2023-10-29T06:13:23.991Z,75765.06
2023-10-29T06:15:50.383Z,75767.16
2023-10-29T06:18:18.228Z,75771.31
2023-10-29T06:20:44.840Z,75765.06
2023-10-29T06:23:14.557Z,75773.38
2023-10-29T06:25:43.424Z,75783.78
2023-10-29T06:28:09.842Z,75779.63
2023-10-29T06:30:44.900Z,75790.00
2023-10-29T06:33:11.405Z,75806.63
2023-10-29T06:35:40.403Z,75796.22
2023-10-29T06:38:07.156Z,75812.84
2023-10-29T06:40:33.537Z,75806.63
2023-10-29T06:42:59.895Z,75817.00
2023-10-29T06:45:26.312Z,75829.47
2023-10-29T06:47:52.824Z,75825.31
2023-10-29T06:50:29.181Z,75827.38
2023-10-29T06:52:55.527Z,75823.22
2023-10-29T06:55:21.923Z,75817.00
2023-10-29T06:57:48.442Z,75829.47
2023-10-29T07:00:17.444Z,75839.84
2023-10-29T07:02:43.917Z,75854.38
2023-10-29T07:05:13.206Z,75858.53
2023-10-29T07:07:40.057Z,75841.91
2023-10-29T07:10:07.226Z,75846.06
2023-10-29T07:12:33.942Z,75848.16
2023-10-29T07:15:00.813Z,75852.31
2023-10-29T07:17:27.617Z,75866.84
2023-10-29T07:19:54.774Z,75871.00
2023-10-29T07:22:23.264Z,75879.31
2023-10-29T07:24:52.630Z,75881.38
2023-10-29T07:27:21.822Z,75889.69
2023-10-29T07:29:51.265Z,75885.53
2023-10-29T07:32:17.735Z,75895.91
2023-10-29T07:34:46.872Z,75881.38
2023-10-29T07:37:13.421Z,75883.47
2023-10-29T07:39:42.147Z,75887.63
2023-10-29T07:42:09.920Z,75893.84
2023-10-29T07:44:38.654Z,75912.53
2023-10-29T07:47:10.149Z,75912.53
2023-10-29T07:49:38.616Z,75916.69
2023-10-29T07:52:07.507Z,75931.22
2023-10-29T07:54:40.646Z,75931.22
2023-10-29T07:57:07.236Z,75895.91
2023-10-29T07:59:35.181Z,75844.00
2023-10-29T08:02:01.699Z,75864.78
2023-10-29T08:04:30.364Z,75893.84
2023-10-29T08:06:58.970Z,75891.78
2023-10-29T08:09:28.601Z,75895.91
2023-10-29T08:11:56.199Z,75873.06
2023-10-29T08:14:29.710Z,75850.22
2023-10-29T08:16:59.960Z,75839.84
2023-10-29T08:19:36.383Z,75858.53
2023-10-29T08:22:05.115Z,75850.22
2023-10-29T08:24:35.374Z,75827.38
2023-10-29T08:27:02.948Z,75846.06
2023-10-29T08:29:29.311Z,75839.84
2023-10-29T08:31:55.905Z,75846.06
2023-10-29T08:34:27.414Z,75833.63
2023-10-29T08:36:56.965Z,75827.38
2023-10-29T08:39:24.565Z,75844.00
2023-10-29T08:41:51.609Z,75848.16
2023-10-29T08:44:20.536Z,75858.53
2023-10-29T08:46:49.912Z,75883.47
2023-10-29T08:49:16.325Z,75889.69
2023-10-29T08:51:45.206Z,75887.63
2023-10-29T08:54:11.741Z,75900.06
2023-10-29T08:56:38.483Z,75904.22
2023-10-29T08:59:06.176Z,75877.22
2023-10-29T09:01:34.387Z,75868.91
2023-10-29T09:04:01.517Z,75883.47
2023-10-29T09:06:28.285Z,75883.47
2023-10-29T09:08:54.874Z,75904.22
2023-10-29T09:11:21.473Z,75910.47
2023-10-29T09:13:50.794Z,75887.63
2023-10-29T09:16:20.996Z,75860.63
2023-10-29T09:18:47.586Z,75895.91
2023-10-29T09:21:17.710Z,75873.06
2023-10-29T09:23:44.131Z,75885.53
2023-10-29T09:26:12.384Z,75868.91
2023-10-29T09:28:38.841Z,75895.91
2023-10-29T09:31:09.510Z,75893.84
2023-10-29T09:33:36.245Z,75893.84
2023-10-29T09:36:06.103Z,75893.84
2023-10-29T09:38:32.597Z,75891.78
2023-10-29T09:40:59.412Z,75898.00
2023-10-29T09:43:38.538Z,75877.22
2023-10-29T09:46:06.534Z,75862.69
2023-10-29T09:48:35.947Z,75858.53
2023-10-29T09:51:03.649Z,75839.84
2023-10-29T09:53:32.761Z,75856.47
2023-10-29T09:55:59.207Z,75829.47
2023-10-29T09:58:28.152Z,75844.00
2023-10-29T10:00:55.533Z,75881.38
2023-10-29T10:03:26.301Z,75858.53
2023-10-29T10:05:56.445Z,75860.63
2023-10-29T10:08:31.814Z,75850.22
2023-10-29T10:10:58.718Z,75800.38
2023-10-29T10:13:40.888Z,75756.78
2023-10-29T10:16:11.913Z,75804.53
2023-10-29T10:18:55.790Z,75769.22
2023-10-29T10:21:24.332Z,75744.31
2023-10-29T10:23:58.070Z,75787.94
2023-10-29T10:26:34.792Z,75794.16
2023-10-29T10:29:08.806Z,75796.22
2023-10-29T10:31:42.842Z,75800.38
2023-10-29T10:34:16.698Z,75669.53
2023-10-29T10:36:50.177Z,75650.84
2023-10-29T10:39:25.646Z,75532.47
2023-10-29T10:41:52.260Z,75553.25
2023-10-29T10:44:20.408Z,75515.88
2023-10-29T10:46:52.123Z,75532.47
2023-10-29T10:49:19.713Z,75657.09
2023-10-29T10:51:50.543Z,75574.00
2023-10-29T10:54:20.335Z,75561.56
2023-10-29T10:56:49.564Z,75596.84
2023-10-29T10:59:18.651Z,75729.78
2023-10-29T11:01:48.095Z,75769.22
2023-10-29T11:04:14.995Z,75802.47
2023-10-29T11:06:44.300Z,75835.69
2023-10-29T11:09:14.901Z,75854.38
2023-10-29T11:11:51.776Z,75844.00
2023-10-29T11:14:21.102Z,75862.69
2023-10-29T11:17:00.662Z,75854.38
2023-10-29T11:19:47.412Z,75835.69
2023-10-29T11:22:23.094Z,75868.91
2023-10-29T11:25:08.023Z,75860.63
2023-10-29T11:27:45.284Z,75858.53
2023-10-29T11:30:20.983Z,75862.69
2023-10-29T11:33:07.857Z,75856.47
2023-10-29T11:35:35.191Z,75846.06
2023-10-29T11:38:02.793Z,75846.06
2023-10-29T11:40:33.402Z,75850.22
2023-10-29T11:43:18.755Z,75827.38
2023-10-29T11:45:54.814Z,75848.16
2023-10-29T11:48:22.747Z,75839.84
2023-10-29T11:51:21.728Z,75827.38
2023-10-29T11:53:51.691Z,75825.31
2023-10-29T11:56:19.236Z,75808.69
2023-10-29T11:58:45.675Z,75817.00
2023-10-29T12:01:17.189Z,75810.78
2023-10-29T12:03:51.397Z,75808.69
2023-10-29T12:06:19.220Z,75798.31
2023-10-29T12:08:48.354Z,75794.16
2023-10-29T12:11:14.967Z,75781.69
2023-10-29T12:13:42.690Z,75752.63
2023-10-29T12:16:09.508Z,75727.69
2023-10-29T12:18:35.992Z,75769.22
2023-10-29T12:21:13.794Z,75754.69
2023-10-29T12:23:42.722Z,75781.69
2023-10-29T12:26:14.314Z,75787.94
2023-10-29T12:28:41.448Z,75814.94
2023-10-29T12:31:23.230Z,75796.22
2023-10-29T12:34:16.081Z,75814.94
2023-10-29T12:36:54.523Z,75814.94
2023-10-29T12:39:23.512Z,75821.16
2023-10-29T12:41:53.346Z,75812.84
2023-10-29T12:44:21.970Z,75800.38
2023-10-29T12:46:52.520Z,75810.78
2023-10-29T12:49:28.674Z,75819.06
2023-10-29T12:51:56.143Z,75819.06
2023-10-29T12:54:29.331Z,75819.06
2023-10-29T12:57:10.112Z,75808.69
2023-10-29T12:59:36.538Z,75802.47
2023-10-29T13:02:06.192Z,75804.53
2023-10-29T13:04:34.673Z,75800.38
2023-10-29T13:07:01.903Z,75810.78
2023-10-29T13:09:29.626Z,75808.69
2023-10-29T13:11:58.558Z,75806.63
2023-10-29T13:14:28.111Z,75810.78
2023-10-29T13:16:58.853Z,75814.94
2023-10-29T13:19:26.839Z,75821.16
2023-10-29T13:21:53.629Z,75819.06
2023-10-29T13:24:21.851Z,75825.31
2023-10-29T13:26:53.336Z,75839.84
2023-10-29T13:29:20.543Z,75846.06
2023-10-29T13:31:47.209Z,75848.16
2023-10-29T13:34:17.312Z,75854.38
2023-10-29T13:36:44.442Z,75858.53
2023-10-29T13:39:11.152Z,75854.38
2023-10-29T13:41:38.342Z,75860.63
2023-10-29T13:44:04.976Z,75860.63
2023-10-29T13:46:31.846Z,75873.06
2023-10-29T13:49:04.652Z,75883.47
2023-10-29T13:51:31.085Z,75889.69
2023-10-29T13:53:57.557Z,75889.69
2023-10-29T13:56:24.130Z,75902.16
2023-10-29T13:58:53.523Z,75904.22
2023-10-29T14:01:21.688Z,75908.38
2023-10-29T14:03:50.135Z,75925.00
2023-10-29T14:06:23.413Z,75933.31
2023-10-29T14:08:52.573Z,75947.84
2023-10-29T14:11:22.270Z,75958.22
2023-10-29T14:13:53.823Z,75929.16
2023-10-29T14:16:20.294Z,75879.31
2023-10-29T14:18:46.884Z,75814.94
2023-10-29T14:21:13.558Z,75839.84
2023-10-29T14:23:43.152Z,75868.91
2023-10-29T14:26:09.736Z,75895.91
2023-10-29T14:28:36.460Z,75902.16
2023-10-29T14:31:05.762Z,75904.22
2023-10-29T14:33:36.118Z,75910.47
2023-10-29T14:36:02.720Z,75914.63
2023-10-29T14:38:30.322Z,75918.78
2023-10-29T14:40:56.891Z,75914.63
2023-10-29T14:43:23.662Z,75927.06
2023-10-29T14:46:02.552Z,75914.63
2023-10-29T14:48:28.963Z,75916.69
2023-10-29T14:50:55.904Z,75925.00
2023-10-29T14:53:22.385Z,75918.78
2023-10-29T14:55:48.956Z,75925.00
2023-10-29T14:58:16.339Z,75925.00
2023-10-29T15:00:47.055Z,75914.63
2023-10-29T15:03:14.090Z,75910.47
2023-10-29T15:05:41.269Z,75914.63
2023-10-29T15:08:07.879Z,75912.53
2023-10-29T15:10:34.529Z,75910.47
2023-10-29T15:13:01.358Z,75912.53
2023-10-29T15:15:30.344Z,75912.53
2023-10-29T15:17:58.750Z,75927.06
2023-10-29T15:20:26.097Z,75922.91
2023-10-29T15:22:52.725Z,75929.16
2023-10-29T15:25:19.209Z,75943.69
2023-10-29T15:27:45.770Z,75947.84
2023-10-29T15:30:12.862Z,75945.78
2023-10-29T15:32:39.519Z,75952.00
2023-10-29T15:35:08.458Z,75945.78
2023-10-29T15:37:34.818Z,75958.22
2023-10-29T15:40:01.258Z,75981.06
2023-10-29T15:42:27.756Z,75999.78
2023-10-29T15:44:54.610Z,76010.16
2023-10-29T15:47:23.574Z,75991.47
2023-10-29T15:49:50.752Z,76008.06
2023-10-29T15:52:23.751Z,76018.47
2023-10-29T15:54:50.525Z,76033.00
2023-10-29T15:57:20.313Z,76016.38
2023-10-29T15:59:46.816Z,76033.00
2023-10-29T16:02:15.977Z,76035.06
2023-10-29T16:04:44.246Z,76041.31
2023-10-29T16:07:11.038Z,76049.63
2023-10-29T16:09:37.413Z,76028.84
2023-10-29T16:12:09.309Z,76039.22
2023-10-29T16:14:41.921Z,76037.16
2023-10-29T16:17:09.459Z,76035.06
2023-10-29T16:19:36.043Z,76043.38
2023-10-29T16:22:02.619Z,76043.38
2023-10-29T16:24:29.082Z,76035.06
2023-10-29T16:27:06.267Z,76033.00
2023-10-29T16:29:32.930Z,76030.94
2023-10-29T16:31:59.377Z,76022.63
2023-10-29T16:34:34.782Z,76020.53
2023-10-29T16:37:04.163Z,76026.78
2023-10-29T16:39:32.940Z,76030.94
2023-10-29T16:41:59.851Z,76037.16
2023-10-29T16:44:27.393Z,76026.78
2023-10-29T16:47:01.872Z,76035.06
2023-10-29T16:49:33.147Z,76035.06
2023-10-29T16:52:03.556Z,76024.69
2023-10-29T16:54:30.401Z,76018.47
2023-10-29T16:56:59.733Z,76016.38
2023-10-29T16:59:26.163Z,76006.00
2023-10-29T17:01:54.745Z,76022.63
2023-10-29T17:04:24.378Z,76020.53
2023-10-29T17:06:51.449Z,76001.84
2023-10-29T17:09:17.870Z,75995.63
2023-10-29T17:11:52.392Z,75987.31
2023-10-29T17:14:21.219Z,75989.38
2023-10-29T17:16:52.805Z,75987.31
2023-10-29T17:19:21.105Z,75979.00
2023-10-29T17:21:54.873Z,75991.47
2023-10-29T17:24:27.480Z,75995.63
2023-10-29T17:26:59.492Z,76001.84
2023-10-29T17:29:28.738Z,76003.91
2023-10-29T17:31:56.448Z,75997.69
2023-10-29T17:34:25.572Z,76003.91
2023-10-29T17:36:55.202Z,76016.38
2023-10-29T17:39:23.094Z,76020.53
2023-10-29T17:41:52.608Z,76028.84
2023-10-29T17:44:19.417Z,76045.47
2023-10-29T17:46:48.386Z,76072.47
2023-10-29T17:49:16.908Z,76072.47
2023-10-29T17:51:47.042Z,76101.53
2023-10-29T17:54:13.854Z,76116.06
2023-10-29T17:56:41.649Z,76114.00
2023-10-29T17:59:08.100Z,76111.94
2023-10-29T18:01:37.101Z,76101.53
2023-10-29T18:04:06.544Z,76089.06
2023-10-29T18:06:33.466Z,76097.38
2023-10-29T18:09:00.151Z,76093.22
2023-10-29T18:11:26.566Z,76080.78
2023-10-29T18:13:53.225Z,76076.63
2023-10-29T18:16:22.502Z,76049.63
2023-10-29T18:18:50.867Z,76053.78
2023-10-29T18:21:21.587Z,76051.69
2023-10-29T18:23:50.797Z,76072.47
2023-10-29T18:26:17.351Z,76082.84
2023-10-29T18:28:54.695Z,76093.22
2023-10-29T18:31:33.163Z,76095.31
2023-10-29T18:34:00.642Z,76111.94
2023-10-29T18:36:30.557Z,76126.47
2023-10-29T18:38:58.133Z,76157.63
2023-10-29T18:41:31.063Z,76159.69
2023-10-29T18:44:04.768Z,76172.16
2023-10-29T18:46:33.032Z,76197.09
2023-10-29T18:48:59.483Z,76190.84
2023-10-29T18:51:25.886Z,76184.63
2023-10-29T18:53:54.739Z,76195.00
2023-10-29T18:56:21.447Z,76230.31
2023-10-29T18:58:50.505Z,76224.09
2023-10-29T19:01:17.246Z,76238.63
2023-10-29T19:03:43.995Z,76255.25
2023-10-29T19:06:15.583Z,76246.94
2023-10-29T19:08:49.094Z,76249.00
2023-10-29T19:11:17.507Z,76284.31
2023-10-29T19:13:43.982Z,76255.25
2023-10-29T19:16:14.009Z,76267.72
2023-10-29T19:18:40.747Z,76284.31
2023-10-29T19:21:11.314Z,76269.78
2023-10-29T19:23:38.556Z,76276.00
2023-10-29T19:26:05.262Z,76282.25
2023-10-29T19:28:31.881Z,76263.56
2023-10-29T19:31:19.904Z,76280.16
2023-10-29T19:33:44.992Z,76280.16
2023-10-29T19:36:13.060Z,76290.56
2023-10-29T19:38:40.739Z,76294.72
2023-10-29T19:41:07.149Z,76290.56
2023-10-29T19:43:33.998Z,76290.56
2023-10-29T19:46:01.362Z,76296.78
2023-10-29T19:48:30.402Z,76305.09
2023-10-29T19:51:02.740Z,76288.47
2023-10-29T19:53:37.527Z,76294.72
2023-10-29T19:56:12.242Z,76303.00
2023-10-29T19:58:38.793Z,76307.16
2023-10-29T20:01:11.679Z,76313.41
2023-10-29T20:03:41.414Z,76309.25
2023-10-29T20:06:09.468Z,76332.09
2023-10-29T20:08:40.628Z,76334.16
2023-10-29T20:11:08.332Z,76336.25
2023-10-29T20:13:36.164Z,76344.56
2023-10-29T20:16:02.674Z,76357.03
2023-10-29T20:18:32.999Z,76338.31
2023-10-29T20:21:00.734Z,76338.31
2023-10-29T20:23:27.637Z,76350.78
2023-10-29T20:25:54.481Z,76357.03
2023-10-29T20:28:21.066Z,76340.41
2023-10-29T20:30:47.814Z,76352.88
2023-10-29T20:33:14.490Z,76359.09
2023-10-29T20:35:41.076Z,76365.31
2023-10-29T20:38:07.521Z,76369.47
2023-10-29T20:40:36.376Z,76357.03
2023-10-29T20:43:09.917Z,76367.41
2023-10-29T20:45:36.392Z,76379.88
2023-10-29T20:48:03.023Z,76371.56
2023-10-29T20:50:29.473Z,76377.78
2023-10-29T20:52:55.898Z,76379.88
2023-10-29T20:55:29.193Z,76400.63
2023-10-29T20:57:59.464Z,76384.03
2023-10-29T21:00:26.125Z,76406.88
2023-10-29T21:02:52.541Z,76419.34
2023-10-29T21:05:18.952Z,76417.25
2023-10-29T21:07:45.362Z,76408.94
2023-10-29T21:10:11.816Z,76419.34
2023-10-29T21:12:38.416Z,76433.88
2023-10-29T21:15:05.410Z,76433.88
2023-10-29T21:17:32.178Z,76427.66
2023-10-29T21:19:58.598Z,76435.94
2023-10-29T21:22:25.018Z,76446.34
2023-10-29T21:24:51.494Z,76446.34
2023-10-29T21:27:18.178Z,76454.66
2023-10-29T21:29:44.593Z,76460.88
2023-10-29T21:32:14.751Z,76458.81
2023-10-29T21:34:41.104Z,76467.13
2023-10-29T21:37:12.142Z,76467.13
2023-10-29T21:39:38.702Z,76467.13
2023-10-29T21:42:09.487Z,76462.97
2023-10-29T21:44:35.866Z,76465.03
2023-10-29T21:47:02.330Z,76481.66
2023-10-29T21:49:30.631Z,76475.41
2023-10-29T21:51:57.193Z,76477.50
2023-10-29T21:54:26.485Z,76487.88
2023-10-29T21:56:56.328Z,76498.28
2023-10-29T21:59:25.698Z,76502.41
2023-10-29T22:01:52.186Z,76506.56
2023-10-29T22:04:18.782Z,76521.13
2023-10-29T22:06:49.829Z,76521.13
2023-10-29T22:09:16.713Z,76525.28
2023-10-29T22:11:48.797Z,76516.97
2023-10-29T22:14:18.282Z,76519.03
2023-10-29T22:16:44.862Z,76525.28
2023-10-29T22:19:18.269Z,76535.66
2023-10-29T22:21:49.504Z,76550.19
2023-10-29T22:24:16.958Z,76558.50
2023-10-29T22:26:43.421Z,76562.66
2023-10-29T22:29:09.863Z,76566.81
2023-10-29T22:31:36.238Z,76585.50
2023-10-29T22:34:08.430Z,76585.50
2023-10-29T22:36:34.941Z,76583.44
2023-10-29T22:39:01.450Z,76593.81
2023-10-29T22:41:34.575Z,76587.59
2023-10-29T22:44:05.865Z,76600.06
2023-10-29T22:46:32.313Z,76610.44
2023-10-29T22:48:59.005Z,76616.66
2023-10-29T22:51:27.975Z,76624.97
2023-10-29T22:53:56.993Z,76627.06
2023-10-29T22:56:23.389Z,76645.75
2023-10-29T22:58:49.841Z,76647.84
2023-10-29T23:01:17.509Z,76664.44
2023-10-29T23:03:44.230Z,76670.69
2023-10-29T23:06:14.168Z,76691.47
2023-10-29T23:08:50.723Z,76683.16
2023-10-29T23:11:17.833Z,76691.47
2023-10-29T23:13:45.035Z,76699.75
2023-10-29T23:16:12.682Z,76710.16
2023-10-29T23:18:47.957Z,76712.22
2023-10-29T23:21:14.441Z,76708.06
2023-10-29T23:23:45.227Z,76712.22
2023-10-29T23:26:14.357Z,76718.47
2023-10-29T23:28:40.858Z,76722.63
2023-10-29T23:31:07.623Z,76724.69
2023-10-29T23:33:34.182Z,76722.63
2023-10-29T23:36:00.537Z,76716.38
2023-10-29T23:38:34.359Z,76724.69
2023-10-29T23:41:00.878Z,76726.78
2023-10-29T23:43:29.433Z,76726.78
2023-10-29T23:45:55.865Z,76720.53
2023-10-29T23:48:25.456Z,76714.31
2023-10-29T23:50:52.084Z,76714.31
2023-10-29T23:53:21.563Z,76710.16
2023-10-29T23:55:47.984Z,76710.16
2023-10-29T23:58:14.394Z,76708.06
